sensor_id;sensor_type;location;lat;lon;timestamp;temperature;humidity
11136;DHT22;5622;50.840;4.948;2023-07-13T00:02:30;17.60;99.90
11136;DHT22;5622;50.840;4.948;2023-07-13T00:05:16;17.50;99.90
11136;DHT22;5622;50.840;4.948;2023-07-13T00:07:57;17.40;99.90
11136;DHT22;5622;50.840;4.948;2023-07-13T00:10:36;17.50;99.90
11136;DHT22;5622;50.840;4.948;2023-07-13T00:13:19;17.40;99.90
11136;DHT22;5622;50.840;4.948;2023-07-13T00:16:03;17.40;99.90
11136;DHT22;5622;50.840;4.948;2023-07-13T00:18:43;17.40;99.90
11136;DHT22;5622;50.840;4.948;2023-07-13T00:21:27;17.40;99.90
11136;DHT22;5622;50.840;4.948;2023-07-13T00:24:07;17.40;99.90
11136;DHT22;5622;50.840;4.948;2023-07-13T00:26:47;17.30;99.90
11136;DHT22;5622;50.840;4.948;2023-07-13T00:29:32;17.20;99.90
11136;DHT22;5622;50.840;4.948;2023-07-13T00:32:18;17.30;99.90
11136;DHT22;5622;50.840;4.948;2023-07-13T00:34:57;17.30;99.90
11136;DHT22;5622;50.840;4.948;2023-07-13T00:37:40;17.20;99.90
11136;DHT22;5622;50.840;4.948;2023-07-13T00:40:18;17.20;99.90
11136;DHT22;5622;50.840;4.948;2023-07-13T00:42:56;17.20;99.90
11136;DHT22;5622;50.840;4.948;2023-07-13T00:48:48;17.10;99.90
11136;DHT22;5622;50.840;4.948;2023-07-13T00:51:35;17.10;99.90
11136;DHT22;5622;50.840;4.948;2023-07-13T00:54:20;17.10;99.90
11136;DHT22;5622;50.840;4.948;2023-07-13T01:00:28;17.10;99.90
11136;DHT22;5622;50.840;4.948;2023-07-13T01:03:10;17.10;99.90
11136;DHT22;5622;50.840;4.948;2023-07-13T01:05:53;17.00;99.90
11136;DHT22;5622;50.840;4.948;2023-07-13T01:08:34;17.00;99.90
11136;DHT22;5622;50.840;4.948;2023-07-13T01:11:23;17.00;99.90
11136;DHT22;5622;50.840;4.948;2023-07-13T01:14:06;17.00;99.90
11136;DHT22;5622;50.840;4.948;2023-07-13T01:16:49;16.90;99.90
11136;DHT22;5622;50.840;4.948;2023-07-13T01:19:37;16.90;99.90
11136;DHT22;5622;50.840;4.948;2023-07-13T01:22:23;16.90;99.90
11136;DHT22;5622;50.840;4.948;2023-07-13T01:25:05;16.80;99.90
11136;DHT22;5622;50.840;4.948;2023-07-13T01:27:40;16.80;99.90
11136;DHT22;5622;50.840;4.948;2023-07-13T01:30:18;16.80;99.90
11136;DHT22;5622;50.840;4.948;2023-07-13T01:32:58;16.70;99.90
11136;DHT22;5622;50.840;4.948;2023-07-13T01:35:36;16.80;99.90
11136;DHT22;5622;50.840;4.948;2023-07-13T01:38:21;16.80;99.90
11136;DHT22;5622;50.840;4.948;2023-07-13T01:41:11;16.70;99.90
11136;DHT22;5622;50.840;4.948;2023-07-13T01:43:51;16.70;99.90
11136;DHT22;5622;50.840;4.948;2023-07-13T01:46:34;16.70;99.90
11136;DHT22;5622;50.840;4.948;2023-07-13T01:49:14;16.70;99.90
11136;DHT22;5622;50.840;4.948;2023-07-13T01:51:51;16.70;99.90
11136;DHT22;5622;50.840;4.948;2023-07-13T01:58:04;16.60;99.90
11136;DHT22;5622;50.840;4.948;2023-07-13T02:00:47;16.60;99.90
11136;DHT22;5622;50.840;4.948;2023-07-13T02:03:22;16.60;99.90
11136;DHT22;5622;50.840;4.948;2023-07-13T02:05:56;16.50;99.90
11136;DHT22;5622;50.840;4.948;2023-07-13T02:08:33;16.60;99.90
11136;DHT22;5622;50.840;4.948;2023-07-13T02:11:12;16.60;99.90
11136;DHT22;5622;50.840;4.948;2023-07-13T02:13:59;16.60;99.90
11136;DHT22;5622;50.840;4.948;2023-07-13T02:16:37;16.50;99.90
11136;DHT22;5622;50.840;4.948;2023-07-13T02:19:26;16.50;99.90
11136;DHT22;5622;50.840;4.948;2023-07-13T02:22:09;16.40;99.90
11136;DHT22;5622;50.840;4.948;2023-07-13T02:24:52;16.40;99.90
11136;DHT22;5622;50.840;4.948;2023-07-13T02:27:36;16.40;99.90
11136;DHT22;5622;50.840;4.948;2023-07-13T02:30:15;16.40;99.90
11136;DHT22;5622;50.840;4.948;2023-07-13T02:32:57;16.40;99.90
11136;DHT22;5622;50.840;4.948;2023-07-13T02:35:32;16.30;99.90
11136;DHT22;5622;50.840;4.948;2023-07-13T02:38:06;16.30;99.90
11136;DHT22;5622;50.840;4.948;2023-07-13T02:40:59;16.20;99.90
11136;DHT22;5622;50.840;4.948;2023-07-13T02:43:45;16.20;99.90
11136;DHT22;5622;50.840;4.948;2023-07-13T02:46:29;16.20;99.90
11136;DHT22;5622;50.840;4.948;2023-07-13T02:49:11;16.20;99.90
11136;DHT22;5622;50.840;4.948;2023-07-13T02:51:51;16.30;99.90
11136;DHT22;5622;50.840;4.948;2023-07-13T02:54:30;16.30;99.90
11136;DHT22;5622;50.840;4.948;2023-07-13T02:57:06;16.30;99.90
11136;DHT22;5622;50.840;4.948;2023-07-13T02:59:47;16.30;99.90
11136;DHT22;5622;50.840;4.948;2023-07-13T03:02:28;16.30;99.90
11136;DHT22;5622;50.840;4.948;2023-07-13T03:05:08;16.30;99.90
11136;DHT22;5622;50.840;4.948;2023-07-13T03:07:46;16.30;99.90
11136;DHT22;5622;50.840;4.948;2023-07-13T03:10:33;16.20;99.90
11136;DHT22;5622;50.840;4.948;2023-07-13T03:13:20;16.30;99.90
11136;DHT22;5622;50.840;4.948;2023-07-13T03:16:02;16.30;99.90
11136;DHT22;5622;50.840;4.948;2023-07-13T03:18:44;16.30;99.90
11136;DHT22;5622;50.840;4.948;2023-07-13T03:21:20;16.30;99.90
11136;DHT22;5622;50.840;4.948;2023-07-13T03:24:01;16.30;99.90
11136;DHT22;5622;50.840;4.948;2023-07-13T03:26:42;16.20;99.90
11136;DHT22;5622;50.840;4.948;2023-07-13T03:29:20;16.20;99.90
11136;DHT22;5622;50.840;4.948;2023-07-13T03:31:53;16.20;99.90
11136;DHT22;5622;50.840;4.948;2023-07-13T03:34:36;16.20;99.90
11136;DHT22;5622;50.840;4.948;2023-07-13T03:37:14;16.20;99.90
11136;DHT22;5622;50.840;4.948;2023-07-13T03:39:58;16.20;99.90
11136;DHT22;5622;50.840;4.948;2023-07-13T03:42:58;16.20;99.90
11136;DHT22;5622;50.840;4.948;2023-07-13T03:45:43;16.20;99.90
11136;DHT22;5622;50.840;4.948;2023-07-13T03:48:31;16.20;99.90
11136;DHT22;5622;50.840;4.948;2023-07-13T03:51:09;16.20;99.90
11136;DHT22;5622;50.840;4.948;2023-07-13T03:53:47;16.20;99.90
11136;DHT22;5622;50.840;4.948;2023-07-13T03:56:23;16.20;99.90
11136;DHT22;5622;50.840;4.948;2023-07-13T03:59:00;16.20;99.90
11136;DHT22;5622;50.840;4.948;2023-07-13T04:01:41;16.30;99.90
11136;DHT22;5622;50.840;4.948;2023-07-13T04:04:26;16.20;99.90
11136;DHT22;5622;50.840;4.948;2023-07-13T04:07:07;16.20;99.90
11136;DHT22;5622;50.840;4.948;2023-07-13T04:09:44;16.20;99.90
11136;DHT22;5622;50.840;4.948;2023-07-13T04:12:26;16.20;99.90
11136;DHT22;5622;50.840;4.948;2023-07-13T04:15:03;16.20;99.90
11136;DHT22;5622;50.840;4.948;2023-07-13T04:17:42;16.10;99.90
11136;DHT22;5622;50.840;4.948;2023-07-13T04:20:20;16.10;99.90
11136;DHT22;5622;50.840;4.948;2023-07-13T04:23:04;16.10;99.90
11136;DHT22;5622;50.840;4.948;2023-07-13T04:25:45;16.20;99.90
11136;DHT22;5622;50.840;4.948;2023-07-13T04:28:23;16.20;99.90
11136;DHT22;5622;50.840;4.948;2023-07-13T04:31:07;16.20;99.90
11136;DHT22;5622;50.840;4.948;2023-07-13T04:33:50;16.20;99.90
11136;DHT22;5622;50.840;4.948;2023-07-13T04:36:30;16.30;99.90
11136;DHT22;5622;50.840;4.948;2023-07-13T04:39:16;16.20;99.90
11136;DHT22;5622;50.840;4.948;2023-07-13T04:42:00;16.30;99.90
11136;DHT22;5622;50.840;4.948;2023-07-13T04:44:41;16.40;99.90
11136;DHT22;5622;50.840;4.948;2023-07-13T04:47:26;16.40;99.90
11136;DHT22;5622;50.840;4.948;2023-07-13T04:50:14;16.40;99.90
11136;DHT22;5622;50.840;4.948;2023-07-13T04:52:57;16.40;99.90
11136;DHT22;5622;50.840;4.948;2023-07-13T04:55:45;16.40;99.90
11136;DHT22;5622;50.840;4.948;2023-07-13T04:58:29;16.40;99.90
11136;DHT22;5622;50.840;4.948;2023-07-13T05:01:13;16.50;99.90
11136;DHT22;5622;50.840;4.948;2023-07-13T05:03:47;16.40;99.90
11136;DHT22;5622;50.840;4.948;2023-07-13T05:06:32;16.50;99.90
11136;DHT22;5622;50.840;4.948;2023-07-13T05:09:12;16.50;99.90
11136;DHT22;5622;50.840;4.948;2023-07-13T05:11:53;16.60;99.90
11136;DHT22;5622;50.840;4.948;2023-07-13T05:14:31;16.50;99.90
11136;DHT22;5622;50.840;4.948;2023-07-13T05:17:10;16.60;99.90
11136;DHT22;5622;50.840;4.948;2023-07-13T05:19:52;16.60;99.90
11136;DHT22;5622;50.840;4.948;2023-07-13T05:22:32;16.70;99.90
11136;DHT22;5622;50.840;4.948;2023-07-13T05:25:10;16.70;99.90
11136;DHT22;5622;50.840;4.948;2023-07-13T05:27:57;16.70;99.90
11136;DHT22;5622;50.840;4.948;2023-07-13T05:30:39;16.80;99.90
11136;DHT22;5622;50.840;4.948;2023-07-13T05:33:16;16.80;99.90
11136;DHT22;5622;50.840;4.948;2023-07-13T05:36:04;16.90;99.90
11136;DHT22;5622;50.840;4.948;2023-07-13T05:38:45;16.90;99.90
11136;DHT22;5622;50.840;4.948;2023-07-13T05:41:23;16.90;99.90
11136;DHT22;5622;50.840;4.948;2023-07-13T05:43:58;16.90;99.90
11136;DHT22;5622;50.840;4.948;2023-07-13T05:46:38;17.00;99.90
11136;DHT22;5622;50.840;4.948;2023-07-13T05:49:18;17.00;99.90
11136;DHT22;5622;50.840;4.948;2023-07-13T05:51:55;17.00;99.90
11136;DHT22;5622;50.840;4.948;2023-07-13T05:54:33;17.10;99.90
11136;DHT22;5622;50.840;4.948;2023-07-13T05:57:16;17.00;99.90
11136;DHT22;5622;50.840;4.948;2023-07-13T05:59:58;17.10;99.90
11136;DHT22;5622;50.840;4.948;2023-07-13T06:02:43;17.10;99.90
11136;DHT22;5622;50.840;4.948;2023-07-13T06:05:22;17.10;99.90
11136;DHT22;5622;50.840;4.948;2023-07-13T06:08:15;17.10;99.90
11136;DHT22;5622;50.840;4.948;2023-07-13T06:10:58;17.10;99.90
11136;DHT22;5622;50.840;4.948;2023-07-13T06:13:44;17.20;99.90
11136;DHT22;5622;50.840;4.948;2023-07-13T06:16:28;17.30;99.90
11136;DHT22;5622;50.840;4.948;2023-07-13T06:19:07;17.30;99.90
11136;DHT22;5622;50.840;4.948;2023-07-13T06:21:48;17.30;99.90
11136;DHT22;5622;50.840;4.948;2023-07-13T06:24:27;17.30;99.90
11136;DHT22;5622;50.840;4.948;2023-07-13T06:27:07;17.30;99.90
11136;DHT22;5622;50.840;4.948;2023-07-13T06:29:55;17.40;99.90
11136;DHT22;5622;50.840;4.948;2023-07-13T06:32:49;17.40;99.90
11136;DHT22;5622;50.840;4.948;2023-07-13T06:35:25;17.40;99.90
11136;DHT22;5622;50.840;4.948;2023-07-13T06:38:01;17.40;99.90
11136;DHT22;5622;50.840;4.948;2023-07-13T06:40:40;17.50;99.90
11136;DHT22;5622;50.840;4.948;2023-07-13T06:43:20;17.50;99.90
11136;DHT22;5622;50.840;4.948;2023-07-13T06:46:03;17.50;99.90
11136;DHT22;5622;50.840;4.948;2023-07-13T06:48:57;17.50;99.90
11136;DHT22;5622;50.840;4.948;2023-07-13T06:51:36;17.60;99.90
11136;DHT22;5622;50.840;4.948;2023-07-13T06:54:14;17.60;99.90
11136;DHT22;5622;50.840;4.948;2023-07-13T06:56:51;17.60;99.90
11136;DHT22;5622;50.840;4.948;2023-07-13T06:59:32;17.70;99.90
11136;DHT22;5622;50.840;4.948;2023-07-13T07:02:08;17.70;99.90
11136;DHT22;5622;50.840;4.948;2023-07-13T07:04:56;17.70;99.90
11136;DHT22;5622;50.840;4.948;2023-07-13T07:07:34;17.70;99.90
11136;DHT22;5622;50.840;4.948;2023-07-13T07:10:12;17.70;99.90
11136;DHT22;5622;50.840;4.948;2023-07-13T07:12:51;17.80;99.90
11136;DHT22;5622;50.840;4.948;2023-07-13T07:15:29;17.80;99.90
11136;DHT22;5622;50.840;4.948;2023-07-13T07:18:10;17.80;99.90
11136;DHT22;5622;50.840;4.948;2023-07-13T07:21:01;17.90;99.90
11136;DHT22;5622;50.840;4.948;2023-07-13T07:23:38;17.90;99.90
11136;DHT22;5622;50.840;4.948;2023-07-13T07:26:15;17.90;99.90
11136;DHT22;5622;50.840;4.948;2023-07-13T07:28:57;17.90;99.90
11136;DHT22;5622;50.840;4.948;2023-07-13T07:31:45;18.00;99.90
11136;DHT22;5622;50.840;4.948;2023-07-13T07:34:22;18.10;99.90
11136;DHT22;5622;50.840;4.948;2023-07-13T07:37:05;18.20;99.90
11136;DHT22;5622;50.840;4.948;2023-07-13T07:39:51;18.30;99.90
11136;DHT22;5622;50.840;4.948;2023-07-13T07:45:09;18.40;99.90
11136;DHT22;5622;50.840;4.948;2023-07-13T07:47:51;18.50;99.90
11136;DHT22;5622;50.840;4.948;2023-07-13T07:50:34;18.50;99.90
11136;DHT22;5622;50.840;4.948;2023-07-13T07:53:18;18.50;99.90
11136;DHT22;5622;50.840;4.948;2023-07-13T07:55:52;18.60;99.90
11136;DHT22;5622;50.840;4.948;2023-07-13T07:58:31;18.70;99.90
11136;DHT22;5622;50.840;4.948;2023-07-13T08:01:12;18.70;99.90
11136;DHT22;5622;50.840;4.948;2023-07-13T08:03:51;18.80;99.90
11136;DHT22;5622;50.840;4.948;2023-07-13T08:06:35;18.80;99.90
11136;DHT22;5622;50.840;4.948;2023-07-13T08:09:23;18.80;99.90
11136;DHT22;5622;50.840;4.948;2023-07-13T08:12:02;18.80;99.90
11136;DHT22;5622;50.840;4.948;2023-07-13T08:14:41;18.90;99.90
11136;DHT22;5622;50.840;4.948;2023-07-13T08:17:24;19.00;99.90
11136;DHT22;5622;50.840;4.948;2023-07-13T08:20:10;19.00;99.90
11136;DHT22;5622;50.840;4.948;2023-07-13T08:22:45;19.00;99.90
11136;DHT22;5622;50.840;4.948;2023-07-13T08:25:30;19.00;99.90
11136;DHT22;5622;50.840;4.948;2023-07-13T08:28:08;19.00;99.90
11136;DHT22;5622;50.840;4.948;2023-07-13T08:30:50;19.00;99.90
11136;DHT22;5622;50.840;4.948;2023-07-13T08:33:31;19.00;99.90
11136;DHT22;5622;50.840;4.948;2023-07-13T08:36:08;19.00;99.90
11136;DHT22;5622;50.840;4.948;2023-07-13T08:38:52;18.90;99.90
11136;DHT22;5622;50.840;4.948;2023-07-13T08:41:31;18.90;99.90
11136;DHT22;5622;50.840;4.948;2023-07-13T08:44:30;19.00;99.90
11136;DHT22;5622;50.840;4.948;2023-07-13T08:47:15;19.00;99.90
11136;DHT22;5622;50.840;4.948;2023-07-13T08:49:54;19.00;99.90
11136;DHT22;5622;50.840;4.948;2023-07-13T08:52:38;19.10;99.90
11136;DHT22;5622;50.840;4.948;2023-07-13T08:55:26;19.10;99.90
11136;DHT22;5622;50.840;4.948;2023-07-13T08:58:16;19.20;99.90
11136;DHT22;5622;50.840;4.948;2023-07-13T09:01:03;19.20;99.90
11136;DHT22;5622;50.840;4.948;2023-07-13T09:03:54;19.30;99.90
11136;DHT22;5622;50.840;4.948;2023-07-13T09:07:03;19.40;99.90
11136;DHT22;5622;50.840;4.948;2023-07-13T09:09:52;19.40;99.90
11136;DHT22;5622;50.840;4.948;2023-07-13T09:12:36;19.60;99.90
11136;DHT22;5622;50.840;4.948;2023-07-13T09:15:34;19.80;99.90
11136;DHT22;5622;50.840;4.948;2023-07-13T09:18:13;20.20;99.90
11136;DHT22;5622;50.840;4.948;2023-07-13T09:20:54;20.40;99.90
11136;DHT22;5622;50.840;4.948;2023-07-13T09:23:36;20.60;99.90
11136;DHT22;5622;50.840;4.948;2023-07-13T09:26:11;20.80;99.90
11136;DHT22;5622;50.840;4.948;2023-07-13T09:28:58;21.00;99.90
11136;DHT22;5622;50.840;4.948;2023-07-13T09:31:42;21.30;99.90
11136;DHT22;5622;50.840;4.948;2023-07-13T09:34:22;21.50;99.90
11136;DHT22;5622;50.840;4.948;2023-07-13T09:37:05;21.70;99.90
11136;DHT22;5622;50.840;4.948;2023-07-13T09:39:58;21.90;99.90
11136;DHT22;5622;50.840;4.948;2023-07-13T09:42:39;22.10;99.90
11136;DHT22;5622;50.840;4.948;2023-07-13T09:45:26;22.10;99.90
11136;DHT22;5622;50.840;4.948;2023-07-13T09:48:16;22.00;99.90
11136;DHT22;5622;50.840;4.948;2023-07-13T09:51:01;22.10;99.90
11136;DHT22;5622;50.840;4.948;2023-07-13T09:53:47;22.20;99.90
11136;DHT22;5622;50.840;4.948;2023-07-13T09:56:29;22.10;99.90
11136;DHT22;5622;50.840;4.948;2023-07-13T09:59:09;22.30;99.90
11136;DHT22;5622;50.840;4.948;2023-07-13T10:02:04;22.50;99.90
11136;DHT22;5622;50.840;4.948;2023-07-13T10:05:11;22.80;99.90
11136;DHT22;5622;50.840;4.948;2023-07-13T10:08:00;23.00;99.90
11136;DHT22;5622;50.840;4.948;2023-07-13T10:10:43;22.80;99.90
11136;DHT22;5622;50.840;4.948;2023-07-13T10:13:46;22.50;99.90
11136;DHT22;5622;50.840;4.948;2023-07-13T10:16:29;22.30;99.90
11136;DHT22;5622;50.840;4.948;2023-07-13T10:19:23;22.20;99.90
11136;DHT22;5622;50.840;4.948;2023-07-13T10:22:13;22.10;99.90
11136;DHT22;5622;50.840;4.948;2023-07-13T10:24:53;22.10;99.90
11136;DHT22;5622;50.840;4.948;2023-07-13T10:27:35;22.10;99.90
11136;DHT22;5622;50.840;4.948;2023-07-13T10:30:20;22.20;99.90
11136;DHT22;5622;50.840;4.948;2023-07-13T10:33:08;22.20;99.90
11136;DHT22;5622;50.840;4.948;2023-07-13T10:36:05;22.20;99.90
11136;DHT22;5622;50.840;4.948;2023-07-13T10:38:54;22.20;99.90
11136;DHT22;5622;50.840;4.948;2023-07-13T10:41:36;22.10;99.90
11136;DHT22;5622;50.840;4.948;2023-07-13T10:44:27;22.00;99.90
11136;DHT22;5622;50.840;4.948;2023-07-13T10:47:14;22.10;99.90
11136;DHT22;5622;50.840;4.948;2023-07-13T10:49:58;22.30;99.90
11136;DHT22;5622;50.840;4.948;2023-07-13T10:52:55;22.60;99.90
11136;DHT22;5622;50.840;4.948;2023-07-13T10:55:57;22.60;99.90
11136;DHT22;5622;50.840;4.948;2023-07-13T10:59:00;22.50;99.80
11136;DHT22;5622;50.840;4.948;2023-07-13T11:01:54;22.40;99.90
11136;DHT22;5622;50.840;4.948;2023-07-13T11:59:48;22.50;98.10
11136;DHT22;5622;50.840;4.948;2023-07-13T12:03:18;22.40;98.10
11136;DHT22;5622;50.840;4.948;2023-07-13T12:06:29;22.30;97.70
11136;DHT22;5622;50.840;4.948;2023-07-13T12:09:58;22.50;96.70
11136;DHT22;5622;50.840;4.948;2023-07-13T12:12:58;22.60;96.10
11136;DHT22;5622;50.840;4.948;2023-07-13T12:26:42;22.80;97.00
11136;DHT22;5622;50.840;4.948;2023-07-13T12:37:18;22.90;95.70
11136;DHT22;5622;50.840;4.948;2023-07-13T12:40:26;22.80;95.10
11136;DHT22;5622;50.840;4.948;2023-07-13T12:50:20;22.30;95.50
